November, 27, 2014, 4:18 am
Plane Spotting In Texas -- Send Me The Scoop On Your Favorite Spots
--------Under Construction And Just For Fun--------
Flight Radar Provided By FlightRadar24.com
Dallas Ft. Worth Airports METAR
KDFW 270953Z 02007KT 10SM CLR 05/M03 A3047 RMK AO2 SLP317 T00501028

KDAL 270953Z 34003KT 10SM CLR 04/M02 A3048 RMK AO2 SLP321 T00441022

Houston Airports METAR
KIAH 270953Z 00000KT 10SM CLR 08/04 A3039 RMK AO2 SLP291 T00780039

KHOU 270953Z 03003KT 10SM CLR 10/06 A3038 RMK AO2 SLP292 T01000056

Austin Airport METAR
KAUS 270953Z 36007KT 10SM CLR 04/02 A3041 RMK AO2 SLP298 T00440017

San Antonio Airport METAR
KSAN 270951Z 27003KT 10SM CLR 14/01 A3011 RMK AO2 SLP194 T01390006 $

EL Paso Airport METAR
KELP 270951Z 00000KT 10SM CLR 03/M07 A3036 RMK AO2 SLP254 T00281072

Airport Delays
No Airport Delays
No airport delays are being reported at this time

Spotter Videos
Emirates A380 Inaugural Flight To DFW Qantas A380 Inaugural Flight To DFW

Twitter Feed